createdAt,value
2023-05-10T00:02:36.369Z,81.95
2023-05-10T00:05:26.630Z,81.69
2023-05-10T00:08:11.346Z,81.86
2023-05-10T00:11:22.901Z,81.91
2023-05-10T00:14:43.051Z,81.59
2023-05-10T00:17:26.618Z,82.01
2023-05-10T00:23:08.957Z,81.99
2023-05-10T00:25:38.533Z,82.32
2023-05-10T00:28:06.859Z,82.39
2023-05-10T00:30:39.009Z,82.69
2023-05-10T00:33:08.113Z,82.71
2023-05-10T00:35:48.488Z,82.88
2023-05-10T00:38:20.356Z,83.00
2023-05-10T00:40:49.803Z,82.92
2023-05-10T00:43:26.060Z,82.86
2023-05-10T00:45:56.470Z,82.75
2023-05-10T00:48:25.108Z,82.64
2023-05-10T00:50:53.411Z,82.25
2023-05-10T00:53:21.996Z,82.08
2023-05-10T00:55:50.693Z,81.97
2023-05-10T00:58:19.213Z,81.84
2023-05-10T01:00:49.729Z,82.12
2023-05-10T01:03:20.040Z,82.13
2023-05-10T01:05:50.949Z,82.20
2023-05-10T01:08:20.651Z,81.95
2023-05-10T01:10:51.161Z,82.11
2023-05-10T01:13:33.783Z,81.97
2023-05-10T01:16:03.945Z,81.76
2023-05-10T01:18:36.982Z,82.15
2023-05-10T01:21:17.246Z,82.44
2023-05-10T01:24:05.733Z,82.14
2023-05-10T01:26:52.650Z,81.76
2023-05-10T01:29:36.208Z,82.37
2023-05-10T01:32:21.206Z,82.53
2023-05-10T01:34:57.718Z,82.58
2023-05-10T01:37:35.815Z,82.13
2023-05-10T01:40:13.230Z,81.99
2023-05-10T01:42:48.900Z,82.11
2023-05-10T01:45:22.545Z,82.20
2023-05-10T01:48:00.563Z,82.27
2023-05-10T01:50:33.389Z,82.48
2023-05-10T01:53:04.427Z,82.09
2023-05-10T01:55:36.794Z,82.36
2023-05-10T01:58:09.367Z,82.38
2023-05-10T02:00:38.834Z,82.29
2023-05-10T02:03:10.917Z,82.18
2023-05-10T02:05:40.858Z,82.35
2023-05-10T02:08:10.424Z,82.23
2023-05-10T02:10:40.461Z,81.88
2023-05-10T02:13:10.391Z,81.36
2023-05-10T02:15:40.205Z,81.62
2023-05-10T02:18:13.079Z,81.75
2023-05-10T02:20:41.804Z,81.73
2023-05-10T02:23:11.999Z,81.59
2023-05-10T02:25:41.336Z,81.40
2023-05-10T02:28:10.733Z,81.68
2023-05-10T02:30:40.086Z,81.33
2023-05-10T02:33:10.216Z,80.49
2023-05-10T02:35:40.412Z,80.58
2023-05-10T02:38:12.697Z,80.88
2023-05-10T02:40:43.551Z,80.88
2023-05-10T02:43:15.365Z,80.30
2023-05-10T02:45:45.263Z,80.64
2023-05-10T02:48:15.651Z,81.12
2023-05-10T02:50:47.417Z,80.88
2023-05-10T02:53:21.416Z,80.55
2023-05-10T02:55:53.845Z,80.08
2023-05-10T02:58:22.451Z,80.14
2023-05-10T03:00:50.780Z,80.33
2023-05-10T03:03:22.094Z,79.86
2023-05-10T03:05:54.757Z,80.45
2023-05-10T03:08:23.331Z,80.62
2023-05-10T03:11:01.892Z,80.04
2023-05-10T03:13:36.458Z,80.85
2023-05-10T03:16:10.814Z,81.04
2023-05-10T03:18:46.240Z,80.44
2023-05-10T03:21:17.306Z,79.85
2023-05-10T03:23:50.056Z,80.37
2023-05-10T03:26:22.911Z,80.81
2023-05-10T03:28:52.838Z,80.56
2023-05-10T03:31:21.590Z,80.01
2023-05-10T03:33:51.639Z,79.67
2023-05-10T03:36:25.397Z,80.25
2023-05-10T03:38:54.007Z,80.82
2023-05-10T03:41:22.743Z,80.72
2023-05-10T03:43:51.044Z,80.63
2023-05-10T03:46:19.486Z,80.36
2023-05-10T03:48:48.334Z,81.17
2023-05-10T03:51:18.168Z,80.94
2023-05-10T03:53:46.501Z,80.84
2023-05-10T03:56:14.913Z,79.63
2023-05-10T03:58:43.246Z,80.17
2023-05-10T04:01:11.555Z,80.54
2023-05-10T04:03:40.331Z,80.45
2023-05-10T04:06:10.206Z,80.98
2023-05-10T04:08:40.008Z,81.02
2023-05-10T04:11:09.315Z,80.69
2023-05-10T04:13:37.848Z,80.72
2023-05-10T04:16:07.020Z,80.47
2023-05-10T04:18:35.330Z,80.07
2023-05-10T04:21:03.730Z,80.30
2023-05-10T04:23:32.055Z,80.44
2023-05-10T04:26:05.366Z,80.16
2023-05-10T04:28:33.940Z,79.97
2023-05-10T04:31:05.854Z,80.47
2023-05-10T04:33:34.946Z,80.34
2023-05-10T04:36:03.894Z,80.36
2023-05-10T04:38:32.210Z,79.65
2023-05-10T04:41:08.288Z,79.46
2023-05-10T04:43:37.503Z,79.49
2023-05-10T04:46:05.950Z,79.09
2023-05-10T04:48:34.518Z,79.63
2023-05-10T04:51:04.800Z,79.29
2023-05-10T04:53:33.145Z,79.87
2023-05-10T04:56:01.818Z,79.69
2023-05-10T04:58:31.590Z,79.30
2023-05-10T05:01:06.677Z,79.19
2023-05-10T05:03:35.239Z,79.16
2023-05-10T05:06:03.812Z,79.21
2023-05-10T05:08:32.243Z,79.38
2023-05-10T05:11:00.593Z,78.95
2023-05-10T05:13:28.959Z,79.44
2023-05-10T05:15:58.740Z,79.49
2023-05-10T05:18:27.055Z,79.56
2023-05-10T05:20:55.407Z,79.18
2023-05-10T05:23:25.817Z,78.39
2023-05-10T05:25:54.514Z,78.53
2023-05-10T05:28:23.075Z,78.32
2023-05-10T05:30:51.375Z,78.14
2023-05-10T05:33:21.044Z,78.09
2023-05-10T05:35:51.791Z,77.66
2023-05-10T05:38:20.143Z,77.52
2023-05-10T05:40:48.583Z,77.72
2023-05-10T05:43:16.936Z,77.61
2023-05-10T05:45:45.618Z,77.45
2023-05-10T05:48:13.932Z,78.18
2023-05-10T05:50:43.902Z,77.69
2023-05-10T05:53:12.551Z,78.11
2023-05-10T05:55:41.009Z,77.92
2023-05-10T05:58:09.360Z,78.11
2023-05-10T06:00:37.713Z,78.66
2023-05-10T06:03:06.096Z,78.63
2023-05-10T06:05:34.536Z,77.85
2023-05-10T06:08:04.328Z,77.53
2023-05-10T06:10:32.778Z,78.18
2023-05-10T06:13:01.185Z,78.06
2023-05-10T06:15:29.723Z,77.58
2023-05-10T06:17:58.229Z,77.73
2023-05-10T06:20:26.696Z,77.97
2023-05-10T06:22:55.016Z,78.14
2023-05-10T06:25:25.775Z,78.08
2023-05-10T06:27:58.216Z,78.40
2023-05-10T06:30:29.375Z,78.24
2023-05-10T06:32:58.336Z,78.00
2023-05-10T06:35:26.899Z,78.39
2023-05-10T06:37:55.699Z,78.01
2023-05-10T06:40:25.414Z,78.13
2023-05-10T06:42:53.789Z,78.19
2023-05-10T06:45:22.397Z,77.86
2023-05-10T06:47:50.785Z,78.16
2023-05-10T06:50:19.184Z,78.31
2023-05-10T06:52:47.461Z,78.29
2023-05-10T06:55:16.410Z,78.21
2023-05-10T06:57:46.421Z,77.82
2023-05-10T07:00:15.992Z,78.02
2023-05-10T07:02:44.549Z,77.84
2023-05-10T07:05:13.284Z,77.31
2023-05-10T07:07:41.752Z,77.07
2023-05-10T07:10:11.112Z,76.82
2023-05-10T07:12:39.723Z,77.79
2023-05-10T07:15:11.537Z,76.59
2023-05-10T07:17:40.844Z,77.51
2023-05-10T07:20:11.458Z,76.62
2023-05-10T07:22:39.858Z,77.27
2023-05-10T07:25:09.114Z,76.90
2023-05-10T07:27:37.467Z,76.97
2023-05-10T07:30:06.666Z,78.78
2023-05-10T07:32:36.648Z,78.22
2023-05-10T07:35:05.618Z,79.30
2023-05-10T07:37:33.921Z,78.58
2023-05-10T07:40:02.187Z,77.78
2023-05-10T07:42:31.458Z,76.89
2023-05-10T07:44:59.922Z,77.25
2023-05-10T07:47:28.428Z,76.95
2023-05-10T07:49:58.909Z,78.11
2023-05-10T07:52:27.463Z,77.55
2023-05-10T07:54:57.824Z,77.91
2023-05-10T07:57:26.248Z,77.98
2023-05-10T07:59:54.670Z,79.09
2023-05-10T08:02:23.154Z,79.37
2023-05-10T08:04:51.495Z,80.49
2023-05-10T08:07:21.314Z,78.64
2023-05-10T08:09:49.668Z,81.19
2023-05-10T08:12:18.069Z,79.26
2023-05-10T08:14:46.423Z,78.82
2023-05-10T08:17:14.922Z,78.72
2023-05-10T08:19:43.349Z,78.97
2023-05-10T08:22:11.784Z,76.79
2023-05-10T08:24:42.997Z,80.18
2023-05-10T08:27:11.491Z,76.08
2023-05-10T08:29:50.151Z,78.25
2023-05-10T08:32:19.059Z,77.02
2023-05-10T08:34:47.584Z,77.42
2023-05-10T08:37:20.082Z,81.22
2023-05-10T08:39:50.089Z,80.86
2023-05-10T08:42:21.374Z,77.87
2023-05-10T08:44:50.917Z,78.56
2023-05-10T08:47:20.846Z,79.32
2023-05-10T08:49:52.083Z,79.27
2023-05-10T08:52:21.009Z,80.85
2023-05-10T08:54:51.073Z,78.44
2023-05-10T08:57:21.048Z,76.96
2023-05-10T08:59:49.855Z,78.29
2023-05-10T09:02:19.339Z,77.53
2023-05-10T09:04:47.884Z,77.53
2023-05-10T09:07:17.009Z,77.79
2023-05-10T09:09:46.124Z,77.02
2023-05-10T09:12:17.345Z,78.08
2023-05-10T09:14:47.785Z,79.30
2023-05-10T09:17:16.405Z,77.62
2023-05-10T09:19:44.901Z,79.06
2023-05-10T09:22:13.303Z,78.80
2023-05-10T09:24:46.170Z,77.74
2023-05-10T09:27:16.190Z,80.15
2023-05-10T09:29:45.303Z,79.37
2023-05-10T09:32:14.081Z,78.93
2023-05-10T09:34:43.399Z,78.47
2023-05-10T09:37:12.009Z,77.55
2023-05-10T09:39:42.333Z,79.49
2023-05-10T09:42:11.632Z,79.17
2023-05-10T09:44:41.995Z,77.11
2023-05-10T09:47:10.352Z,78.30
2023-05-10T09:49:38.669Z,79.59
2023-05-10T09:52:09.012Z,77.05
2023-05-10T09:54:37.428Z,76.70
2023-05-10T09:57:06.061Z,76.93
2023-05-10T09:59:36.250Z,76.71
2023-05-10T10:02:06.148Z,77.31
2023-05-10T10:04:34.802Z,76.54
2023-05-10T10:07:04.871Z,77.24
2023-05-10T10:09:34.242Z,76.76
2023-05-10T10:12:03.465Z,77.01
2023-05-10T10:14:32.050Z,75.69
2023-05-10T10:19:38.104Z,78.41
2023-05-10T10:22:07.304Z,77.73
2023-05-10T10:24:35.885Z,78.20
2023-05-10T10:27:13.913Z,77.82
2023-05-10T10:29:51.312Z,77.10
2023-05-10T10:32:28.159Z,77.34
2023-05-10T10:34:58.580Z,76.78
2023-05-10T10:37:45.112Z,76.29
2023-05-10T10:40:26.176Z,78.79
2023-05-10T10:42:55.671Z,76.41
2023-05-10T10:45:25.186Z,77.25
2023-05-10T10:48:11.244Z,77.36
2023-05-10T10:50:47.860Z,76.68
2023-05-10T10:53:16.437Z,78.09
2023-05-10T10:55:49.773Z,77.40
2023-05-10T10:58:32.948Z,77.08
2023-05-10T11:01:22.405Z,75.78
2023-05-10T11:04:21.113Z,76.12
2023-05-10T11:06:50.945Z,76.10
2023-05-10T11:09:19.254Z,76.33
2023-05-10T11:11:53.085Z,75.63
2023-05-10T11:14:23.624Z,75.52
2023-05-10T11:16:52.388Z,75.51
2023-05-10T11:19:21.115Z,76.66
2023-05-10T11:21:51.945Z,76.48
2023-05-10T11:24:21.966Z,77.30
2023-05-10T11:26:53.208Z,75.46
2023-05-10T11:29:22.116Z,77.18
2023-05-10T11:31:51.531Z,76.79
2023-05-10T11:34:27.246Z,75.72
2023-05-10T11:36:57.936Z,75.41
2023-05-10T11:39:28.994Z,75.79
2023-05-10T11:42:13.710Z,76.32
2023-05-10T11:44:50.380Z,75.86
2023-05-10T11:47:18.831Z,76.70
2023-05-10T11:49:47.457Z,75.86
2023-05-10T11:52:17.203Z,76.57
2023-05-10T11:54:53.796Z,76.34
2023-05-10T11:57:22.734Z,77.60
2023-05-10T11:59:55.837Z,76.36
2023-05-10T12:02:24.345Z,77.18
2023-05-10T12:04:53.132Z,77.48
2023-05-10T12:07:22.932Z,76.01
2023-05-10T12:10:05.949Z,77.08
2023-05-10T12:12:39.434Z,76.42
2023-05-10T12:15:13.443Z,77.24
2023-05-10T12:17:43.506Z,76.43
2023-05-10T12:20:22.604Z,77.08
2023-05-10T12:22:55.361Z,77.40
2023-05-10T12:25:25.170Z,76.55
2023-05-10T12:27:54.702Z,76.78
2023-05-10T12:30:29.414Z,76.75
2023-05-10T12:33:23.613Z,77.00
2023-05-10T12:36:02.823Z,76.21
2023-05-10T12:38:57.621Z,76.47
2023-05-10T12:41:43.698Z,77.19
2023-05-10T12:44:13.197Z,77.53
2023-05-10T12:46:42.483Z,77.44
2023-05-10T12:49:11.504Z,76.80
2023-05-10T12:51:40.151Z,77.18
2023-05-10T12:54:10.894Z,77.05
2023-05-10T12:56:39.698Z,76.89
2023-05-10T12:59:08.055Z,77.56
2023-05-10T13:01:37.031Z,76.98
2023-05-10T13:04:05.652Z,77.12
2023-05-10T13:06:41.925Z,76.66
2023-05-10T13:09:11.909Z,77.04
2023-05-10T13:12:07.660Z,77.44
2023-05-10T13:14:43.039Z,76.71
2023-05-10T13:17:11.994Z,76.17
2023-05-10T13:19:41.174Z,75.92
2023-05-10T13:22:09.670Z,76.76
2023-05-10T13:24:39.418Z,76.46
2023-05-10T13:27:07.841Z,76.31
2023-05-10T13:29:36.440Z,76.72
2023-05-10T13:32:04.784Z,76.12
2023-05-10T13:34:33.155Z,76.19
2023-05-10T13:37:01.763Z,76.76
2023-05-10T13:39:34.307Z,76.37
2023-05-10T13:42:04.086Z,76.17
2023-05-10T13:44:34.436Z,76.66
2023-05-10T13:47:02.872Z,76.39
2023-05-10T13:49:31.201Z,76.92
2023-05-10T13:51:59.935Z,76.62
2023-05-10T13:54:30.556Z,76.95
2023-05-10T13:56:58.950Z,76.66
2023-05-10T13:59:28.654Z,77.02
2023-05-10T14:01:56.977Z,76.21
2023-05-10T14:04:25.405Z,76.33
2023-05-10T14:06:54.879Z,75.76
2023-05-10T14:09:23.388Z,76.44
2023-05-10T14:11:53.293Z,76.81
2023-05-10T14:14:21.829Z,77.26
2023-05-10T14:16:53.744Z,76.11
2023-05-10T14:19:22.106Z,76.73
2023-05-10T14:22:01.612Z,77.11
2023-05-10T14:24:30.378Z,77.62
2023-05-10T14:26:59.783Z,77.90
2023-05-10T14:29:28.206Z,77.79
2023-05-10T14:31:58.046Z,78.11
2023-05-10T14:34:26.711Z,77.34
2023-05-10T14:36:55.299Z,76.31
2023-05-10T14:39:23.865Z,76.21
2023-05-10T14:41:53.656Z,75.86
2023-05-10T14:44:22.087Z,75.71
2023-05-10T14:46:50.813Z,75.83
2023-05-10T14:49:43.900Z,76.03
2023-05-10T14:52:22.621Z,76.60
2023-05-10T14:54:59.537Z,76.47
2023-05-10T14:57:31.767Z,76.51
2023-05-10T15:00:00.304Z,76.18
2023-05-10T15:02:29.255Z,76.09
2023-05-10T15:05:00.950Z,74.83
2023-05-10T15:07:37.814Z,75.77
2023-05-10T15:10:10.952Z,76.66
2023-05-10T15:12:42.305Z,76.87
2023-05-10T15:15:10.979Z,76.59
2023-05-10T15:17:49.476Z,76.86
2023-05-10T15:20:22.860Z,77.22
2023-05-10T15:22:51.271Z,76.51
2023-05-10T15:25:19.834Z,76.15
2023-05-10T15:27:48.333Z,76.50
2023-05-10T15:30:17.010Z,76.60
2023-05-10T15:32:52.723Z,76.29
2023-05-10T15:35:23.984Z,76.55
2023-05-10T15:37:52.558Z,77.35
2023-05-10T15:40:21.205Z,77.54
2023-05-10T15:42:49.680Z,78.03
2023-05-10T15:45:19.124Z,78.29
2023-05-10T15:47:47.710Z,77.75
2023-05-10T15:50:16.932Z,78.10
2023-05-10T15:52:46.770Z,78.37
2023-05-10T15:55:18.137Z,78.13
2023-05-10T15:57:47.375Z,78.36
2023-05-10T16:00:19.099Z,78.99
2023-05-10T16:02:47.550Z,78.82
2023-05-10T16:05:17.138Z,79.39
2023-05-10T16:07:47.707Z,79.49
2023-05-10T16:10:16.362Z,79.20
2023-05-10T16:12:44.804Z,79.86
2023-05-10T16:15:13.283Z,79.08
2023-05-10T16:17:41.915Z,79.79
2023-05-10T16:20:11.104Z,79.02
2023-05-10T16:22:39.719Z,79.13
2023-05-10T16:25:12.665Z,79.35
2023-05-10T16:27:43.202Z,79.38
2023-05-10T16:30:12.746Z,79.69
2023-05-10T16:32:41.968Z,79.74
2023-05-10T16:35:10.994Z,79.40
2023-05-10T16:37:39.371Z,79.56
2023-05-10T16:40:18.868Z,79.28
2023-05-10T16:42:51.003Z,78.58
2023-05-10T16:45:19.645Z,77.95
2023-05-10T16:47:48.102Z,77.47
2023-05-10T16:50:16.557Z,78.22
2023-05-10T16:52:45.146Z,78.08
2023-05-10T16:55:15.178Z,78.21
2023-05-10T16:57:43.630Z,78.44
2023-05-10T17:00:13.302Z,78.80
2023-05-10T17:02:41.861Z,78.27
2023-05-10T17:05:10.787Z,78.41
2023-05-10T17:07:39.180Z,78.21
2023-05-10T17:10:08.640Z,78.47
2023-05-10T17:12:38.438Z,78.27
2023-05-10T17:15:08.018Z,79.00
2023-05-10T17:17:36.607Z,79.11
2023-05-10T17:20:05.499Z,79.42
2023-05-10T17:22:33.876Z,79.15
2023-05-10T17:25:02.267Z,78.97
2023-05-10T17:27:30.658Z,79.37
2023-05-10T17:30:00.716Z,78.94
2023-05-10T17:32:29.159Z,78.43
2023-05-10T17:34:57.750Z,78.34
2023-05-10T17:37:26.226Z,78.70
2023-05-10T17:39:54.582Z,77.97
2023-05-10T17:42:23.257Z,78.54
2023-05-10T17:44:51.585Z,78.57
2023-05-10T17:47:21.337Z,78.32
2023-05-10T17:49:49.726Z,78.54
2023-05-10T17:52:18.080Z,78.73
2023-05-10T17:54:46.403Z,79.03
2023-05-10T17:57:14.901Z,78.40
2023-05-10T17:59:43.277Z,78.47
2023-05-10T18:02:11.703Z,78.06
2023-05-10T18:05:08.560Z,78.38
2023-05-10T18:07:37.669Z,78.09
2023-05-10T18:10:07.152Z,78.20
2023-05-10T18:12:35.504Z,78.19
2023-05-10T18:15:04.133Z,78.56
2023-05-10T18:17:33.552Z,77.97
2023-05-10T18:20:03.574Z,78.07
2023-05-10T18:22:31.958Z,78.08
2023-05-10T18:25:00.351Z,77.97
2023-05-10T18:27:29.054Z,78.29
2023-05-10T18:29:57.393Z,77.69
2023-05-10T18:32:26.053Z,77.82
2023-05-10T18:34:55.748Z,77.79
2023-05-10T18:37:25.905Z,77.58
2023-05-10T18:39:54.603Z,77.46
2023-05-10T18:42:23.233Z,77.44
2023-05-10T18:44:51.663Z,77.46
2023-05-10T18:47:21.760Z,77.25
2023-05-10T18:49:50.239Z,77.82
2023-05-10T18:52:19.163Z,78.14
2023-05-10T18:54:50.386Z,78.57
2023-05-10T18:57:18.809Z,77.60
2023-05-10T18:59:47.236Z,78.27
2023-05-10T19:02:16.110Z,77.67
2023-05-10T19:04:46.227Z,77.96
2023-05-10T19:07:14.651Z,78.31
2023-05-10T19:09:43.102Z,79.01
2023-05-10T19:12:13.014Z,78.65
2023-05-10T19:14:41.494Z,78.34
2023-05-10T19:17:09.962Z,78.83
2023-05-10T19:19:38.279Z,79.21
2023-05-10T19:22:06.744Z,79.25
2023-05-10T19:24:35.712Z,79.59
2023-05-10T19:27:04.574Z,79.69
2023-05-10T19:29:34.448Z,79.85
2023-05-10T19:32:02.965Z,80.04
2023-05-10T19:34:31.288Z,80.43
2023-05-10T19:36:59.662Z,80.26
2023-05-10T19:39:28.192Z,80.84
2023-05-10T19:41:56.623Z,80.89
2023-05-10T19:44:25.105Z,80.64
2023-05-10T19:46:55.524Z,80.62
2023-05-10T19:49:24.129Z,80.49
2023-05-10T19:51:52.525Z,80.65
2023-05-10T19:54:20.967Z,80.67
2023-05-10T19:56:49.446Z,81.13
2023-05-10T19:59:18.104Z,81.03
2023-05-10T20:01:46.425Z,80.74
2023-05-10T20:04:18.936Z,80.46
2023-05-10T20:06:51.416Z,79.99
2023-05-10T20:09:20.664Z,80.07
2023-05-10T20:11:50.087Z,80.24
2023-05-10T20:14:19.038Z,80.35
2023-05-10T20:16:47.452Z,80.31
2023-05-10T20:19:17.396Z,80.47
2023-05-10T20:21:45.930Z,80.39
2023-05-10T20:24:14.741Z,80.25
2023-05-10T20:26:43.165Z,80.24
2023-05-10T20:29:13.173Z,80.39
2023-05-10T20:31:41.600Z,80.36
2023-05-10T20:34:10.026Z,80.43
2023-05-10T20:36:39.785Z,80.83
2023-05-10T20:39:08.800Z,80.64
2023-05-10T20:41:37.162Z,80.56
2023-05-10T20:44:05.952Z,80.62
2023-05-10T20:46:35.106Z,79.95
2023-05-10T20:49:04.860Z,80.25
2023-05-10T20:51:34.206Z,80.12
2023-05-10T20:54:04.450Z,80.84
2023-05-10T20:56:33.692Z,80.87
2023-05-10T20:59:17.088Z,80.75
2023-05-10T21:01:45.730Z,80.80
2023-05-10T21:04:15.842Z,80.76
2023-05-10T21:06:44.900Z,81.17
2023-05-10T21:38:02.973Z,80.30
2023-05-10T21:40:31.211Z,80.46
2023-05-10T21:42:59.451Z,80.45
2023-05-10T21:45:29.209Z,80.38
2023-05-10T21:47:57.512Z,80.30
2023-05-10T21:50:25.853Z,80.28
2023-05-10T21:52:54.078Z,80.75
2023-05-10T21:55:23.761Z,80.50
2023-05-10T21:57:52.398Z,80.33
2023-05-10T22:00:21.046Z,80.18
2023-05-10T22:02:49.322Z,80.23
2023-05-10T22:05:17.655Z,80.59
2023-05-10T22:07:45.907Z,80.70
2023-05-10T22:10:14.171Z,80.83
2023-05-10T22:12:43.840Z,80.97
2023-05-10T22:15:12.645Z,80.76
2023-05-10T22:17:41.372Z,80.94
2023-05-10T22:20:10.641Z,81.07
2023-05-10T22:22:38.803Z,81.30
2023-05-10T22:25:08.310Z,81.25
2023-05-10T22:27:36.665Z,81.57
2023-05-10T22:30:07.736Z,81.95
2023-05-10T22:32:36.002Z,81.89
2023-05-10T22:35:04.319Z,81.93
2023-05-10T22:37:32.527Z,82.23
2023-05-10T22:40:00.696Z,82.42
2023-05-10T22:42:29.116Z,83.01
2023-05-10T22:44:58.725Z,83.26
2023-05-10T22:47:28.390Z,83.65
2023-05-10T22:49:58.270Z,83.43
2023-05-10T22:52:26.573Z,83.24
2023-05-10T22:54:54.758Z,83.20
2023-05-10T22:57:23.045Z,83.39
2023-05-10T22:59:51.282Z,83.34
2023-05-10T23:02:19.501Z,83.59
2023-05-10T23:04:49.345Z,83.49
2023-05-10T23:07:17.754Z,83.50
2023-05-10T23:09:46.032Z,83.44
2023-05-10T23:12:14.222Z,83.32
2023-05-10T23:14:42.582Z,83.14
2023-05-10T23:17:10.776Z,83.14
2023-05-10T23:19:38.966Z,82.84
2023-05-10T23:22:09.914Z,82.86
2023-05-10T23:24:39.195Z,82.81
2023-05-10T23:27:07.602Z,82.86
2023-05-10T23:29:35.816Z,83.20
2023-05-10T23:32:04.069Z,83.05
2023-05-10T23:34:32.333Z,83.02
2023-05-10T23:37:00.660Z,83.32
2023-05-10T23:39:30.215Z,83.52
2023-05-10T23:41:58.456Z,83.41
2023-05-10T23:44:26.818Z,83.52
2023-05-10T23:46:55.122Z,83.34
2023-05-10T23:49:23.365Z,83.31
2023-05-10T23:51:51.584Z,83.25
2023-05-10T23:54:19.797Z,83.35
2023-05-10T23:56:50.504Z,83.34
2023-05-10T23:59:18.879Z,83.59
